Latest Coastal Weather Observations for Marion Reef

IDQ60701

Issued at 2:21 pm EST Tuesday 26 May 2020 (issued every 10 minutes, with the page automatically refreshed every 10 minutes)

About coastal observations | Map of coastal stations | Coastal observations for QLD | Marine services | Other Formats
Station Details ID: 200704 Name: MARION REEF Lat: -19.10 Lon: 152.39 Height: 2.0 m
Data from the previous 72 hours. | See also: Recent months for locations in Queensland
Date/Time
EST
Wind Sea
Height
m
Swell Vis
km
Cloud Weather Temp
°C
Press
hPa
Rain since
9am
mm
Dir  Spd
kts
Gust
kts
Height
m
Period
s
Dir
26/02:00pm S 12 15 - - - - - - - 22.1 1016.7 -
26/01:30pm S 10 13 - - - - - - - 22.0 1016.9 -
26/01:00pm SSE 10 13 - - - - - - - 22.1 1017.2 -
26/12:30pm S 9 11 - - - - - - - 22.2 1017.8 -
26/12:00pm S 9 13 - - - - - - - 22.0 1018.2 -
26/11:30am S 10 13 - - - - - - - 22.0 1018.6 -
26/11:00am S 9 13 - - - - - - - 21.9 1018.9 -
26/10:30am SSE 9 11 - - - - - - - 21.8 1019.1 -
26/10:00am S 10 13 - - - - - - - 21.8 1019.6 -
26/09:30am S 9 13 - - - - - - - 21.9 1019.7 -
26/09:00am S 10 12 - - - - - - - 21.7 1019.8 -
26/08:30am S 10 13 - - - - - - - 21.7 1019.4 -
26/08:00am S 10 13 - - - - - - - 21.5 1019.3 -
26/07:30am S 8 12 - - - - - - - 21.6 1019.0 -
26/07:00am S 8 11 - - - - - - - 21.4 1018.6 -
26/06:30am S 11 14 - - - - - - - 21.5 1018.1 -
26/06:00am SSW 10 12 - - - - - - - 21.3 1018.0 -
26/05:30am SSW 11 14 - - - - - - - 21.3 1017.7 -
26/05:00am SSW 10 14 - - - - - - - 21.5 1017.7 -
26/04:30am S 9 12 - - - - - - - 21.6 1017.5 -
26/04:00am S 8 11 - - - - - - - 21.4 1017.6 -
26/03:30am SSW 9 13 - - - - - - - 21.3 1017.5 -
26/03:00am SSW 8 11 - - - - - - - 21.3 1017.5 -
26/02:30am SSW 11 14 - - - - - - - 21.5 1017.5 -
26/02:00am SSW 9 13 - - - - - - - 21.2 1017.5 -
26/01:30am SSW 9 14 - - - - - - - 21.4 1017.8 -
26/01:00am SSW 9 13 - - - - - - - 21.5 1017.9 -
26/12:30am SSW 6 10 - - - - - - - 21.5 1018.1 -
26/12:00am SSW 8 15 - - - - - - - 21.6 1018.0 -
 
Date/Time
EST
Wind Sea
Height
m
Swell Vis
km
Cloud Weather Temp
°C
Press
hPa
Rain since
9am
mm
Dir  Spd
kts
Gust
kts
Height
m
Period
s
Dir
25/11:30pm SW 7 10 - - - - - - - 21.5 1018.4 -
25/11:00pm SW 7 10 - - - - - - - 21.7 1018.6 -
25/10:30pm SSW 7 9 - - - - - - - 21.6 1018.5 -
25/10:00pm SW 8 11 - - - - - - - 21.7 1018.6 -
25/09:30pm SW 7 10 - - - - - - - 21.7 1018.5 -
25/09:00pm SSW 7 10 - - - - - - - 21.8 1018.3 -
25/08:30pm SSW 8 11 - - - - - - - 21.8 1018.0 -
25/08:00pm SSW 8 11 - - - - - - - 21.8 1017.9 -
25/07:30pm SW 8 11 - - - - - - - 21.7 1017.7 -
25/07:00pm SSW 8 12 - - - - - - - 21.8 1017.4 -
25/06:30pm SSW 8 11 - - - - - - - 21.8 1017.0 -
25/06:00pm SW 9 12 - - - - - - - 21.8 1016.8 -
25/05:30pm SSW 9 11 - - - - - - - 21.8 1016.6 -
25/05:00pm SSW 8 11 - - - - - - - 21.8 1016.3 -
25/04:30pm SW 9 12 - - - - - - - 22.0 1016.1 -
25/04:00pm SW 8 11 - - - - - - - 22.0 1015.6 -
25/03:30pm SW 8 12 - - - - - - - 21.7 1015.6 -
25/03:00pm SW 7 11 - - - - - - - 21.9 1015.6 -
25/02:30pm WSW 8 11 - - - - - - - 22.0 1015.8 -
25/02:00pm SW 6 9 - - - - - - - 22.3 1015.8 -
25/01:30pm SSW 7 9 - - - - - - - 21.8 1015.8 -
25/01:00pm SW 8 11 - - - - - - - 21.8 1016.1 -
25/12:30pm SSW 9 11 - - - - - - - 21.6 1016.3 -
25/12:00pm SSW 11 15 - - - - - - - 21.5 1016.4 -
25/11:30am SSW 12 15 - - - - - - - 21.7 1016.8 -
25/11:00am SW 13 16 - - - - - - - 21.6 1016.9 -
25/10:30am SW 10 12 - - - - - - - 21.8 1017.5 -
25/10:00am SW 11 13 - - - - - - - 21.8 1017.8 -
25/09:30am SW 11 14 - - - - - - - 21.7 1017.6 -
25/09:00am SSW 8 11 - - - - - - - 21.6 1017.7 -
25/08:30am SSW 10 15 - - - - - - - 21.5 1017.2 -
25/08:00am SW 11 15 - - - - - - - 21.6 1017.1 -
25/07:30am SW 7 11 - - - - - - - 21.4 1015.9 -
25/07:00am SSW 5 10 - - - - - - - 21.0 1016.1 -
25/06:30am SSW 8 11 - - - - - - - 21.2 1017.0 -
25/06:00am SW 10 13 - - - - - - - 21.1 1016.2 -
25/05:30am SSW 10 12 - - - - - - - 21.1 1016.1 -
25/05:00am SW 8 12 - - - - - - - 21.1 1015.1 -
25/04:30am SW 11 16 - - - - - - - 21.0 1015.9 -
25/04:00am SW 11 13 - - - - - - - 21.0 1014.4 -
25/03:30am SW 11 15 - - - - - - - 21.1 1015.6 -
25/03:00am SW 15 19 - - - - - - - 21.1 1013.9 -
25/02:30am SW 12 17 - - - - - - - 21.2 1015.1 -
25/02:00am SSW 12 15 - - - - - - - 21.0 1014.7 -
25/01:30am SW 12 15 - - - - - - - 21.1 1015.4 -
25/01:00am SW 10 14 - - - - - - - 21.0 1016.0 -
25/12:30am SW 10 14 - - - - - - - 21.0 1015.8 -
25/12:00am SW 11 14 - - - - - - - 21.0 1015.8 -
 
Date/Time
EST
Wind Sea
Height
m
Swell Vis
km
Cloud Weather Temp
°C
Press
hPa
Rain since
9am
mm
Dir  Spd
kts
Gust
kts
Height
m
Period
s
Dir
24/11:30pm SSW 11 15 - - - - - - - 21.2 1015.9 -
24/11:00pm WSW 13 16 - - - - - - - 21.3 1016.5 -
24/10:30pm WSW 14 17 - - - - - - - 21.2 1016.3 -
24/10:00pm SW 12 15 - - - - - - - 21.1 1015.9 -
24/09:30pm SW 13 17 - - - - - - - 21.3 1015.7 -
24/09:00pm SW 9 11 - - - - - - - 21.1 1015.5 -
24/08:30pm SW 9 15 - - - - - - - 21.3 1016.6 -
24/08:00pm SW 12 15 - - - - - - - 21.1 1015.8 -
24/07:30pm SSW 12 15 - - - - - - - 21.2 1015.3 -
24/07:00pm SSW 13 16 - - - - - - - 21.0 1015.1 -
24/06:30pm SSW 12 17 - - - - - - - 21.1 1014.4 -
24/06:00pm SSW 12 15 - - - - - - - 21.2 1014.3 -
24/05:30pm SSW 13 16 - - - - - - - 21.1 1013.9 -
24/05:00pm SSW 13 16 - - - - - - - 21.2 1014.2 -
24/04:30pm SSW 14 19 - - - - - - - 21.3 1013.2 -
24/04:00pm SSW 15 17 - - - - - - - 21.2 1012.5 -
24/03:30pm SSW 15 19 - - - - - - - 21.1 1012.3 -
24/03:00pm SSW 13 16 - - - - - - - 20.8 1011.8 -
24/02:30pm SSW 16 19 - - - - - - - 20.7 1011.6 -
24/02:00pm SW 19 21 - - - - - - - 20.9 1012.8 -
24/01:30pm SSW 13 19 - - - - - - - 21.1 1013.4 -
24/01:00pm SSW 18 26 - - - - - - - 20.8 1012.6 -
24/12:30pm SW 16 21 - - - - - - - 20.9 1013.3 -
24/12:00pm SSW 17 21 - - - - - - - 20.5 1013.6 -
24/11:30am SSW 14 17 - - - - - - - 19.2 1014.3 -
24/11:00am SSW 9 11 - - - - - - - 19.3 1015.2 -
24/10:30am SW 9 11 - - - - - - - 18.6 1015.3 -
24/10:00am WSW 12 15 - - - - - - - 18.6 1015.0 -
24/09:30am W 9 11 - - - - - - - 19.5 1015.4 -
24/09:00am NNW 8 11 - - - - - - - 18.8 1014.9 -
24/08:30am WNW 8 11 - - - - - - - 18.7 1014.7 -
24/08:00am WSW 7 11 - - - - - - - 18.6 1014.1 -
24/07:30am W 9 12 - - - - - - - 18.7 1014.5 -
24/07:00am W 8 11 - - - - - - - 18.1 1013.9 -
24/06:30am WNW 9 12 - - - - - - - 18.2 1013.8 -
24/06:00am WSW 11 15 - - - - - - - 18.3 1012.8 -
24/05:30am W 11 13 - - - - - - - 18.4 1012.6 -
24/05:00am W 8 10 - - - - - - - 18.4 1012.6 -
24/04:30am WSW 5 7 - - - - - - - 18.3 1012.3 -
24/04:00am WSW 5 7 - - - - - - - 18.0 1012.1 -
24/03:30am SW 5 7 - - - - - - - 17.9 1012.3 -
24/03:00am WSW 9 11 - - - - - - - 17.8 1012.5 -
24/02:30am W 9 11 - - - - - - - 17.9 1012.8 -
24/02:00am WSW 10 14 - - - - - - - 18.2 1013.2 -
24/01:30am WSW 8 11 - - - - - - - 18.2 1013.6 -
24/01:00am W 9 13 - - - - - - - 18.9 1014.0 -
24/12:30am SW 6 9 - - - - - - - 19.0 1013.9 -
24/12:00am WSW 11 14 - - - - - - - 19.5 1013.9 -
 
Date/Time
EST
Wind Sea
Height
m
Swell Vis
km
Cloud Weather Temp
°C
Press
hPa
Rain since
9am
mm
Dir  Spd
kts
Gust
kts
Height
m
Period
s
Dir
23/11:30pm WSW 14 18 - - - - - - - 19.7 1014.7 -
23/11:00pm WSW 16 20 - - - - - - - 20.3 1015.0 -
23/10:30pm SW 15 18 - - - - - - - 20.1 1015.2 -
23/10:00pm WSW 19 24 - - - - - - - 20.0 1015.1 -
23/09:30pm SW 20 24 - - - - - - - 20.1 1015.2 -
23/09:00pm SW 20 25 - - - - - - - 21.0 1014.6 -
23/08:30pm SW 21 26 - - - - - - - 21.2 1014.3 -
23/08:00pm SSW 22 27 - - - - - - - 21.4 1014.4 -
23/07:30pm SSW 19 22 - - - - - - - 21.3 1013.6 -
23/07:00pm SSW 20 24 - - - - - - - 21.6 1013.0 -
23/06:30pm SSW 17 22 - - - - - - - 21.0 1012.8 -
23/06:00pm SSW 20 23 - - - - - - - 21.3 1012.6 -
23/05:30pm SSW 16 19 - - - - - - - 20.9 1012.2 -
23/05:00pm SSW 15 21 - - - - - - - 20.9 1012.3 -
23/04:30pm SW 14 19 - - - - - - - 20.6 1012.2 -
23/04:00pm SSW 13 15 - - - - - - - 20.5 1011.5 -
23/03:30pm SSW 12 14 - - - - - - - 20.6 1011.5 -
23/03:00pm SW 15 20 - - - - - - - 20.3 1011.3 -
23/02:30pm SSW 15 17 - - - - - - - 20.3 1011.1 -

Other formats

Comma delimited format used in spreadsheet applications
http://www.bom.gov.au/fwo/IDQ60701/IDQ60701.94298.axf

JavaScript Object Notation format (JSON) in row-major order
http://www.bom.gov.au/fwo/IDQ60701/IDQ60701.94298.json

Data quality

Most of these data are generated automatically and are frequently updated. Quality checks on data are not normally performed. It is possible for incorrect values to appear. Refer to information at About Latest Weather Observations and please check the disclaimer before using these data.